Time;durP1;ratioP1;P1;durP2;ratioP2;P2;SDS_P1;SDS_P2;PMS_P1;PMS_P2;Temp;Humidity;BMP_temperature;BMP_pressure;BME280_temperature;BME280_humidity;BME280_pressure;Samples;Min_cycle;Max_cycle;Signal;HPM_P1;HPM_P2
2022/01/22 00:02:19;;;;;;;34.80;8.63;;;;;;;3.84;100.00;103355.19;5077903;28;20499;-42
2022/01/22 00:04:45;;;;;;;24.92;8.35;;;;;;;3.85;100.00;103350.75;5077551;28;20397;-47
2022/01/22 00:07:10;;;;;;;22.30;7.20;;;;;;;3.86;100.00;103352.47;5078370;28;20123;-43
2022/01/22 00:09:39;;;;;;;20.67;7.70;;;;;;;3.89;100.00;103353.22;5076914;28;20039;-44
2022/01/22 00:12:07;;;;;;;19.75;6.88;;;;;;;3.90;100.00;103359.38;5077742;28;20493;-47
2022/01/22 00:14:33;;;;;;;31.13;7.30;;;;;;;3.90;100.00;103352.31;5076787;28;20236;-45
2022/01/22 00:16:59;;;;;;;20.17;7.32;;;;;;;3.93;100.00;103348.69;5078172;28;20507;-46
2022/01/22 00:19:26;;;;;;;17.30;6.28;;;;;;;3.95;100.00;103351.28;5076186;28;20036;-43
2022/01/22 00:21:52;;;;;;;24.15;7.53;;;;;;;3.96;100.00;103342.44;5077986;28;20024;-43
2022/01/22 00:24:18;;;;;;;33.08;8.68;;;;;;;3.97;100.00;103342.38;5059671;28;20058;-43
2022/01/22 00:26:44;;;;;;;19.48;7.35;;;;;;;3.97;100.00;103345.03;5078992;28;20047;-46
2022/01/22 00:29:10;;;;;;;26.02;8.30;;;;;;;3.98;100.00;103337.94;5077483;28;20060;-44
2022/01/22 00:31:39;;;;;;;20.55;7.57;;;;;;;4.01;100.00;103333.41;5077514;28;20880;-43
2022/01/22 00:34:05;;;;;;;22.92;7.72;;;;;;;4.01;100.00;103333.41;5077358;28;20027;-44
2022/01/22 00:36:30;;;;;;;17.58;6.88;;;;;;;4.00;100.00;103339.59;5077760;28;20066;-48
2022/01/22 00:38:55;;;;;;;19.02;7.80;;;;;;;4.03;100.00;103333.34;5056264;28;20062;-47
2022/01/22 00:41:21;;;;;;;23.80;8.38;;;;;;;4.02;100.00;103323.69;5059434;28;20457;-44
2022/01/22 00:43:47;;;;;;;21.27;8.35;;;;;;;4.00;100.00;103334.31;5078422;28;20101;-42
2022/01/22 00:46:12;;;;;;;30.88;11.13;;;;;;;3.99;100.00;103327.31;5081778;28;20016;-43
2022/01/22 00:48:37;;;;;;;21.58;10.50;;;;;;;3.97;100.00;103329.16;5079824;28;20020;-44
2022/01/22 00:51:03;;;;;;;21.50;9.55;;;;;;;3.97;100.00;103317.72;5081449;28;20477;-43
2022/01/22 00:53:28;;;;;;;24.40;10.35;;;;;;;3.93;100.00;103333.69;5078141;28;20031;-44
2022/01/22 00:55:53;;;;;;;17.55;8.98;;;;;;;3.97;100.00;103337.09;5081494;28;20286;-44
2022/01/22 00:58:19;;;;;;;23.23;9.23;;;;;;;3.96;100.00;103334.50;5077970;28;20072;-43
2022/01/22 01:00:44;;;;;;;28.70;10.18;;;;;;;3.94;100.00;103329.28;5080953;28;20082;-42
2022/01/22 01:03:10;;;;;;;19.67;9.38;;;;;;;3.95;100.00;103341.56;5079358;28;20042;-44
2022/01/22 01:05:36;;;;;;;26.95;9.35;;;;;;;3.93;100.00;103346.91;5080707;28;20026;-44
2022/01/22 01:08:02;;;;;;;21.27;9.48;;;;;;;3.95;100.00;103351.28;5081049;28;20111;-47
2022/01/22 01:10:27;;;;;;;22.05;8.73;;;;;;;3.93;100.00;103343.41;5080075;28;20020;-44
2022/01/22 01:12:53;;;;;;;22.55;9.55;;;;;;;3.94;100.00;103347.78;5078811;28;20020;-43
2022/01/22 01:18:05;;;;;;;23.42;9.85;;;;;;;3.94;100.00;103345.13;5080988;28;20056;-43
2022/01/22 01:34:13;;;;;;;23.38;10.77;;;;;;;3.90;100.00;103336.47;5079796;28;20500;-46
2022/01/22 01:36:40;;;;;;;23.77;10.88;;;;;;;3.92;100.00;103341.66;5079713;28;20103;-43
2022/01/22 01:39:09;;;;;;;28.48;9.50;;;;;;;3.89;100.00;103341.81;5079627;28;20024;-45
2022/01/22 01:41:53;;;;;;;24.73;10.63;;;;;;;3.86;100.00;103337.47;5079850;28;20146;-43
2022/01/22 01:44:18;;;;;;;23.80;10.02;;;;;;;3.85;100.00;103350.75;5059403;28;20012;-44
2022/01/22 01:46:45;;;;;;;22.50;10.13;;;;;;;3.84;100.00;103356.97;5080234;28;20047;-46
2022/01/22 01:49:11;;;;;;;30.27;9.93;;;;;;;3.81;100.00;103357.94;5079826;28;20008;-44
2022/01/22 01:51:37;;;;;;;25.13;9.98;;;;;;;3.80;100.00;103348.28;5061480;28;20032;-45
2022/01/22 01:54:28;;;;;;;26.42;10.75;;;;;;;3.75;100.00;103347.56;5079659;28;20266;-46
2022/01/22 01:59:31;;;;;;;23.77;10.40;;;;;;;3.68;100.00;103349.59;5079226;28;20097;-45
2022/01/22 02:01:56;;;;;;;25.50;10.88;;;;;;;3.68;100.00;103349.59;5079892;28;20024;-46
2022/01/22 02:04:22;;;;;;;30.25;11.85;;;;;;;3.68;100.00;103348.69;5077714;28;20116;-44
2022/01/22 02:06:47;;;;;;;19.80;10.13;;;;;;;3.69;100.00;103348.66;5061771;28;20027;-43
2022/01/22 02:09:13;;;;;;;29.58;11.95;;;;;;;3.70;100.00;103341.56;5078930;28;20433;-46
2022/01/22 02:11:40;;;;;;;26.83;11.55;;;;;;;3.71;100.00;103340.66;5079030;28;20024;-44
2022/01/22 02:23:29;;;;;;;29.77;12.35;;;;;;;3.70;100.00;103352.16;5077631;28;20027;-42
2022/01/22 02:25:23;;;;;;;25.30;13.25;;;;;;;3.69;100.00;103346.00;5015785;28;20040;-45
2022/01/22 02:27:48;;;;;;;32.90;12.88;;;;;;;3.72;100.00;103342.41;5014457;28;20049;-44
2022/01/22 02:30:20;;;;;;;31.33;13.40;;;;;;;3.70;100.00;103344.22;5034978;28;20533;-43
2022/01/22 02:33:10;;;;;;;30.20;13.20;;;;;;;3.71;100.00;103328.31;5075825;28;20069;-43
2022/01/22 02:36:01;;;;;;;28.98;14.50;;;;;;;3.71;100.00;103340.66;5059881;28;20028;-45
2022/01/22 02:38:30;;;;;;;35.40;15.77;;;;;;;3.69;100.00;103327.50;5077414;28;20032;-44
2022/01/22 02:40:56;;;;;;;25.33;14.07;;;;;;;3.70;100.00;103337.19;5061289;28;20503;-45
2022/01/22 02:43:21;;;;;;;35.53;16.33;;;;;;;3.68;100.00;103327.56;5076891;28;20020;-44
2022/01/22 02:45:48;;;;;;;35.65;15.52;;;;;;;3.69;100.00;103334.59;5077929;28;20085;-43
2022/01/22 02:48:14;;;;;;;35.13;15.85;;;;;;;3.71;100.00;103332.75;5076857;28;20039;-43
2022/01/22 02:50:40;;;;;;;32.78;15.90;;;;;;;3.70;100.00;103323.06;5078704;28;20520;-44
2022/01/22 02:53:09;;;;;;;33.17;15.25;;;;;;;3.70;100.00;103323.97;5077699;28;20517;-44
2022/01/22 02:55:35;;;;;;;30.30;14.48;;;;;;;3.72;100.00;103326.56;5078538;28;20032;-42
2022/01/22 02:58:01;;;;;;;29.15;16.30;;;;;;;3.72;100.00;103327.41;5076704;28;20537;-46
2022/01/22 03:00:27;;;;;;;31.42;16.42;;;;;;;3.73;100.00;103337.06;5075470;28;20057;-42
2022/01/22 03:02:52;;;;;;;29.38;16.98;;;;;;;3.73;100.00;103339.72;5077510;28;20938;-41
2022/01/22 03:05:18;;;;;;;42.70;17.90;;;;;;;3.77;100.00;103347.50;5075806;28;20008;-45
2022/01/22 03:07:48;;;;;;;38.78;18.67;;;;;;;3.78;100.00;103351.88;5077032;28;20527;-42
2022/01/22 03:10:16;;;;;;;39.30;17.70;;;;;;;3.78;100.00;103351.88;5077223;28;20023;-46
2022/01/22 03:18:08;;;;;;;35.92;18.48;;;;;;;3.80;100.00;103337.72;5077161;28;20085;-44
2022/01/22 03:23:12;;;;;;;34.53;17.60;;;;;;;3.83;100.00;103336.72;5076540;28;20039;-45
2022/01/22 03:28:26;;;;;;;41.20;17.55;;;;;;;3.80;100.00;103343.00;5072858;28;20546;-43
2022/01/22 03:30:52;;;;;;;45.65;19.77;;;;;;;3.81;100.00;103349.13;5077400;28;20587;-44
2022/01/22 03:33:21;;;;;;;43.70;20.10;;;;;;;3.81;100.00;103342.06;5075874;28;20098;-45
2022/01/22 03:35:53;;;;;;;43.33;20.17;;;;;;;3.81;100.00;103351.78;5076584;28;20034;-46
2022/01/22 03:38:19;;;;;;;44.75;20.77;;;;;;;3.80;100.00;103348.28;5075704;28;20144;-45
2022/01/22 03:40:48;;;;;;;40.67;19.98;;;;;;;3.82;100.00;103348.19;5075848;28;20091;-46
2022/01/22 03:43:14;;;;;;;41.00;22.00;;;;;;;3.81;100.00;103350.00;5075434;28;20561;-46
2022/01/22 03:45:40;;;;;;;47.38;21.08;;;;;;;3.82;100.00;103349.09;5076039;28;20049;-44
2022/01/22 03:48:05;;;;;;;44.22;19.20;;;;;;;3.83;100.00;103355.22;5076430;28;20089;-45
2022/01/22 03:50:30;;;;;;;40.22;19.70;;;;;;;3.82;100.00;103357.00;5075899;28;20028;-47
2022/01/22 03:52:55;;;;;;;46.72;21.77;;;;;;;3.82;100.00;103354.38;5075904;28;20077;-46
2022/01/22 03:55:37;;;;;;;38.05;21.25;;;;;;;3.81;100.00;103349.13;5075496;28;20050;-44
2022/01/22 03:58:03;;;;;;;49.17;22.42;;;;;;;3.82;100.00;103356.13;5075618;28;20032;-45
2022/01/22 04:00:28;;;;;;;49.28;23.58;;;;;;;3.80;100.00;103350.94;5057379;28;20027;-44
2022/01/22 04:03:24;;;;;;;47.90;21.60;;;;;;;3.80;100.00;103352.69;5058354;28;20386;-44
2022/01/22 04:05:53;;;;;;;51.47;22.95;;;;;;;3.74;100.00;103343.22;5075444;28;20036;-45
2022/01/22 04:08:19;;;;;;;49.63;24.00;;;;;;;3.77;100.00;103340.47;5075890;28;20427;-49
2022/01/22 04:10:44;;;;;;;53.45;22.73;;;;;;;3.79;100.00;103345.69;5076313;28;20072;-44
2022/01/22 04:13:14;;;;;;;58.22;24.10;;;;;;;3.78;100.00;103350.09;5074010;28;20024;-46
2022/01/22 04:15:40;;;;;;;52.75;23.42;;;;;;;3.79;100.00;103340.41;5075744;28;20020;-41
2022/01/22 04:26:42;;;;;;;51.95;22.27;;;;;;;3.83;100.00;103342.88;5079893;28;20396;-44
2022/01/22 04:29:08;;;;;;;63.10;26.20;;;;;;;3.83;100.00;103347.28;5079311;28;20047;-46
2022/01/22 04:31:33;;;;;;;57.85;25.23;;;;;;;3.84;100.00;103346.38;5079789;28;20434;-45
2022/01/22 04:33:58;;;;;;;62.15;25.35;;;;;;;3.84;100.00;103351.69;5079305;28;20344;-44
2022/01/22 04:36:24;;;;;;;58.10;25.80;;;;;;;3.84;100.00;103341.97;5079429;28;20176;-44
2022/01/22 04:38:49;;;;;;;61.92;25.20;;;;;;;3.86;100.00;103353.34;5060762;28;20391;-46
2022/01/22 04:41:14;;;;;;;64.30;25.35;;;;;;;3.87;100.00;103351.53;5079063;28;20472;-44
2022/01/22 04:43:42;;;;;;;54.50;25.55;;;;;;;3.86;100.00;103353.34;5078086;28;20027;-44
2022/01/22 04:46:21;;;;;;;59.78;27.10;;;;;;;3.87;100.00;103354.19;5081605;28;20044;-43
2022/01/22 04:57:02;;;;;;;67.40;30.23;;;;;;;3.89;100.00;103344.44;5017426;28;20052;-44
2022/01/22 04:59:27;;;;;;;61.97;26.45;;;;;;;3.92;100.00;103352.22;5016708;28;20069;-43
2022/01/22 05:01:53;;;;;;;61.70;27.38;;;;;;;3.90;100.00;103352.31;5046945;28;20107;-43
2022/01/22 05:04:18;;;;;;;67.68;27.50;;;;;;;3.91;100.00;103350.53;5079417;28;20434;-44
2022/01/22 05:06:43;;;;;;;63.20;28.60;;;;;;;3.90;100.00;103354.09;5080898;28;20394;-44
2022/01/22 05:09:08;;;;;;;65.63;27.75;;;;;;;3.87;100.00;103343.63;5061222;28;20024;-45
2022/01/22 05:11:34;;;;;;;67.57;28.10;;;;;;;3.90;100.00;103349.69;5061440;28;20550;-43
2022/01/22 05:13:59;;;;;;;62.67;27.15;;;;;;;3.92;100.00;103344.31;5061929;28;20024;-44
2022/01/22 05:16:25;;;;;;;64.85;28.50;;;;;;;3.93;100.00;103343.41;5079857;28;20040;-43
2022/01/22 05:18:56;;;;;;;61.80;28.35;;;;;;;3.97;100.00;103346.78;5079394;28;20031;-47
2022/01/22 05:21:23;;;;;;;62.53;26.98;;;;;;;3.97;100.00;103339.75;5080063;28;20384;-45
2022/01/22 05:23:49;;;;;;;62.55;25.45;;;;;;;3.97;100.00;103333.56;5079993;28;20448;-45
2022/01/22 05:26:45;;;;;;;74.53;28.27;;;;;;;3.99;100.00;103343.19;5080613;28;20051;-45
2022/01/22 05:39:21;;;;;;;65.68;23.65;;;;;;;4.04;100.00;103338.59;5078293;28;20044;-44
2022/01/22 05:41:46;;;;;;;58.00;23.98;;;;;;;4.06;100.00;103346.47;5078895;28;20529;-44
2022/01/22 05:44:11;;;;;;;67.97;27.50;;;;;;;4.07;100.00;103337.59;5061478;28;20032;-44
2022/01/22 05:46:36;;;;;;;64.45;25.02;;;;;;;4.08;100.00;103340.19;5079402;28;20020;-42
2022/01/22 05:49:02;;;;;;;60.05;23.65;;;;;;;4.10;100.00;103345.41;5079966;28;20023;-43
2022/01/22 05:51:28;;;;;;;54.78;23.63;;;;;;;4.10;100.00;103335.69;5079534;28;20097;-44
2022/01/22 06:01:49;;;;;;;57.83;22.95;;;;;;;4.15;100.00;103347.91;5079941;28;20415;-44
2022/01/22 06:04:14;;;;;;;61.70;22.42;;;;;;;4.15;100.00;103348.75;5079128;28;20024;-42
2022/01/22 06:06:39;;;;;;;59.08;24.35;;;;;;;4.16;100.00;103350.50;5079372;28;20107;-43
2022/01/22 06:09:08;;;;;;;66.38;23.38;;;;;;;4.17;100.00;103357.50;5079257;28;20046;-47
2022/01/22 06:11:40;;;;;;;49.38;21.42;;;;;;;4.17;100.00;103361.94;5078583;28;20488;-43
2022/01/22 06:14:06;;;;;;;59.15;24.02;;;;;;;4.17;100.00;103357.50;5078684;28;20024;-43
2022/01/22 06:16:31;;;;;;;72.18;24.92;;;;;;;4.16;100.00;103342.56;5079069;28;20023;-44
2022/01/22 06:18:57;;;;;;;62.92;24.52;;;;;;;4.17;100.00;103344.25;5078731;28;20270;-42
2022/01/22 06:21:22;;;;;;;69.40;23.90;;;;;;;4.17;100.00;103352.19;5078796;28;20085;-42
2022/01/22 06:23:47;;;;;;;62.38;22.48;;;;;;;4.18;100.00;103348.66;5078891;28;20047;-44
2022/01/22 06:26:13;;;;;;;66.25;25.58;;;;;;;4.19;100.00;103350.38;5060056;28;20399;-43
2022/01/22 06:28:39;;;;;;;61.72;23.40;;;;;;;4.17;100.00;103349.56;5076895;28;20414;-44
2022/01/22 06:31:04;;;;;;;59.88;23.50;;;;;;;4.23;100.00;103357.28;5079567;28;20028;-44
2022/01/22 06:33:30;;;;;;;61.13;24.00;;;;;;;4.24;100.00;103359.00;5077932;28;20028;-45
2022/01/22 06:35:55;;;;;;;71.43;23.92;;;;;;;4.25;100.00;103360.72;5079084;28;20667;-48
2022/01/22 06:38:21;;;;;;;64.72;21.23;;;;;;;4.26;100.00;103356.28;5077996;28;20402;-44
2022/01/22 06:43:31;;;;;;;60.45;20.33;;;;;;;4.30;100.00;103366.69;5077288;28;20119;-42
2022/01/22 06:45:57;;;;;;;59.38;20.65;;;;;;;4.35;100.00;103363.03;5079083;28;20095;-45
2022/01/22 06:48:22;;;;;;;47.67;18.42;;;;;;;4.37;100.00;103364.69;5077395;28;20317;-43
2022/01/22 06:50:48;;;;;;;53.10;20.27;;;;;;;4.39;100.00;103361.97;5078935;28;20209;-44
2022/01/22 06:53:13;;;;;;;50.42;18.77;;;;;;;4.40;100.00;103366.38;5077327;28;20020;-43
2022/01/22 06:55:46;;;;;;;42.05;17.42;;;;;;;4.40;100.00;103367.22;5077996;28;20103;-48
2022/01/22 06:58:11;;;;;;;45.85;18.20;;;;;;;4.41;100.00;103371.59;5077117;28;20030;-42
2022/01/22 07:00:37;;;;;;;48.67;19.30;;;;;;;4.40;100.00;103369.00;5077987;28;20040;-43
2022/01/22 07:03:03;;;;;;;47.58;18.83;;;;;;;4.43;100.00;103382.97;5078601;28;20012;-45
2022/01/22 07:05:28;;;;;;;47.45;18.48;;;;;;;4.46;100.00;103381.97;5077039;28;20387;-44
2022/01/22 07:07:54;;;;;;;45.03;17.38;;;;;;;4.45;100.00;103389.06;5077856;28;20016;-48
2022/01/22 07:10:20;;;;;;;42.00;16.55;;;;;;;4.47;100.00;103373.13;5078043;28;20062;-47
2022/01/22 07:12:45;;;;;;;47.47;17.45;;;;;;;4.46;100.00;103379.34;5076922;28;20523;-45
2022/01/22 07:15:10;;;;;;;40.67;17.45;;;;;;;4.46;100.00;103385.50;5078647;28;20101;-44
2022/01/22 07:17:38;;;;;;;46.90;17.65;;;;;;;4.46;100.00;103393.44;5077379;28;20428;-46
2022/01/22 07:20:10;;;;;;;50.35;16.40;;;;;;;4.45;100.00;103404.94;5077350;28;20649;-46
2022/01/22 07:22:48;;;;;;;47.22;17.95;;;;;;;4.47;100.00;103402.25;5077302;28;20351;-46
2022/01/22 07:25:14;;;;;;;46.17;18.17;;;;;;;4.47;100.00;103399.59;5078430;28;20036;-44
2022/01/22 07:27:39;;;;;;;52.80;18.10;;;;;;;4.46;100.00;103404.03;5076035;28;20496;-48
2022/01/22 07:30:05;;;;;;;48.38;17.95;;;;;;;4.49;100.00;103405.69;5077513;28;20028;-46
2022/01/22 07:32:35;;;;;;;52.65;19.88;;;;;;;4.47;100.00;103400.44;5077329;28;20040;-46
2022/01/22 07:35:05;;;;;;;47.55;18.88;;;;;;;4.48;100.00;103415.41;5059937;28;20032;-45
2022/01/22 07:37:30;;;;;;;49.05;18.20;;;;;;;4.50;100.00;103407.44;5077827;28;20523;-44
2022/01/22 07:39:55;;;;;;;48.58;18.25;;;;;;;4.50;100.00;103404.78;5077555;28;20103;-45
2022/01/22 07:42:21;;;;;;;46.88;17.88;;;;;;;4.51;100.00;103408.28;5075923;28;20103;-45
2022/01/22 07:44:46;;;;;;;52.55;17.92;;;;;;;4.51;100.00;103419.72;5077217;28;20031;-48
2022/01/22 07:47:12;;;;;;;43.83;17.67;;;;;;;4.52;100.00;103420.59;5077587;28;20437;-46
2022/01/22 07:49:37;;;;;;;44.45;17.00;;;;;;;4.52;100.00;103425.91;5076280;28;20032;-42
2022/01/22 07:52:03;;;;;;;52.92;17.90;;;;;;;4.52;100.00;103425.91;5081161;28;20115;-47
2022/01/22 07:54:31;;;;;;;39.03;17.52;;;;;;;4.52;100.00;103426.75;5080425;28;20040;-47
2022/01/22 07:56:56;;;;;;;46.30;17.25;;;;;;;4.55;100.00;103425.75;5081528;28;20039;-43
2022/01/22 07:59:21;;;;;;;49.53;16.98;;;;;;;4.56;100.00;103422.19;5080636;28;20063;-43
2022/01/22 08:01:47;;;;;;;49.97;16.95;;;;;;;4.57;100.00;103424.78;5082324;28;20213;-45
2022/01/22 08:04:12;;;;;;;52.85;17.40;;;;;;;4.60;100.00;103421.16;5081485;28;20032;-45
2022/01/22 08:06:38;;;;;;;46.63;17.45;;;;;;;4.62;100.00;103417.53;5081449;28;20027;-43
2022/01/22 08:09:05;;;;;;;51.65;16.73;;;;;;;4.63;100.00;103413.97;5082022;28;20020;-45
2022/01/22 08:11:30;;;;;;;50.08;16.40;;;;;;;4.65;100.00;103412.13;5081211;28;20110;-46
2022/01/22 08:13:55;;;;;;;53.83;16.83;;;;;;;4.67;100.00;103412.94;5080543;28;20102;-44
2022/01/22 08:16:20;;;;;;;41.03;16.42;;;;;;;4.70;100.00;103413.72;5081718;28;20032;-43
2022/01/22 08:18:46;;;;;;;48.47;17.45;;;;;;;4.70;100.00;103409.31;5080890;28;20422;-42
2022/01/22 08:21:11;;;;;;;51.67;16.73;;;;;;;4.73;100.00;103414.47;5082383;28;20020;-44
2022/01/22 08:23:36;;;;;;;48.35;16.75;;;;;;;4.74;100.00;103413.56;5080815;28;20026;-44
2022/01/22 08:26:06;;;;;;;42.75;16.25;;;;;;;4.78;100.00;103411.66;5081673;28;20047;-45
2022/01/22 08:31:24;;;;;;;44.85;15.57;;;;;;;4.80;100.00;103405.38;5080645;28;20447;-43
2022/01/22 08:36:34;;;;;;;42.28;13.55;;;;;;;4.86;100.00;103405.13;5080392;28;20046;-44
2022/01/22 08:39:00;;;;;;;37.55;14.35;;;;;;;4.89;100.00;103414.75;5079813;28;20016;-43
2022/01/22 08:41:25;;;;;;;38.00;13.45;;;;;;;4.91;100.00;103412.91;5079917;28;20375;-44
2022/01/22 08:43:50;;;;;;;41.95;13.73;;;;;;;4.95;100.00;103410.97;5079466;28;20601;-46
2022/01/22 08:46:16;;;;;;;40.50;12.65;;;;;;;4.98;100.00;103406.44;5059989;28;20063;-46
2022/01/22 08:48:41;;;;;;;35.30;12.93;;;;;;;5.00;100.00;103404.56;5078981;28;20464;-46
2022/01/22 08:51:08;;;;;;;32.53;13.30;;;;;;;5.04;100.00;103415.91;5061015;28;20516;-44
2022/01/22 08:53:33;;;;;;;42.53;13.10;;;;;;;5.07;100.00;103415.78;5078723;28;20471;-43
2022/01/22 08:56:00;;;;;;;34.83;12.18;;;;;;;5.09;100.00;103419.25;5079200;28;20030;-46
2022/01/22 08:58:26;;;;;;;35.00;12.40;;;;;;;5.10;100.00;103420.97;5078427;28;20027;-47
2022/01/22 09:00:51;;;;;;;39.30;13.23;;;;;;;5.12;100.00;103413.81;5079772;28;20108;-47
2022/01/22 09:03:19;;;;;;;33.42;12.80;;;;;;;5.16;100.00;103419.84;5077803;28;20016;-46
2022/01/22 09:05:46;;;;;;;31.85;12.15;;;;;;;5.18;100.00;103424.16;5078228;28;20050;-45
2022/01/22 09:08:14;;;;;;;29.33;11.45;;;;;;;5.22;100.00;103430.19;5078619;28;20016;-46
2022/01/22 09:10:40;;;;;;;32.22;12.35;;;;;;;5.22;100.00;103439.00;5078624;28;20165;-45
2022/01/22 09:13:06;;;;;;;31.92;11.98;;;;;;;5.25;100.00;103440.69;5078090;28;20459;-44
2022/01/22 09:15:31;;;;;;;26.15;11.05;;;;;;;5.30;100.00;103441.34;5080438;28;20511;-48
2022/01/22 09:17:58;;;;;;;31.88;10.45;;;;;;;5.31;100.00;103447.50;5079204;28;20059;-42
2022/01/22 09:23:17;;;;;;;27.85;10.95;;;;;;;5.35;100.00;103441.19;5045482;28;20675;-46
2022/01/22 09:25:43;;;;;;;29.05;9.73;;;;;;;5.39;100.00;103445.41;5078435;28;20032;-44
2022/01/22 09:28:11;;;;;;;26.90;9.52;;;;;;;5.40;100.00;103437.41;5079173;28;20106;-43
2022/01/22 09:30:36;;;;;;;29.50;9.80;;;;;;;5.44;100.00;103448.75;5078414;28;20135;-46
2022/01/22 09:33:02;;;;;;;25.70;10.38;;;;;;;5.47;100.00;103453.91;5078511;28;20432;-43
2022/01/22 09:35:27;;;;;;;25.58;10.38;;;;;;;5.48;100.00;103455.66;5077096;28;20110;-46
2022/01/22 09:37:52;;;;;;;41.95;11.38;;;;;;;5.48;100.00;103458.31;5077786;28;20514;-47
2022/01/22 09:40:18;;;;;;;33.72;10.60;;;;;;;5.51;100.00;103458.16;5077397;28;20506;-45
2022/01/22 09:42:43;;;;;;;28.33;11.10;;;;;;;5.52;100.00;103475.78;5077140;28;20048;-44
2022/01/22 09:45:09;;;;;;;38.00;11.35;;;;;;;5.53;100.00;103476.66;5078308;28;20016;-42
2022/01/22 09:47:35;;;;;;;35.75;11.65;;;;;;;5.53;100.00;103474.88;5076846;28;21057;-48
2022/01/22 09:50:03;;;;;;;41.45;11.88;;;;;;;5.52;100.00;103474.94;5078083;28;20020;-47
2022/01/22 09:52:28;;;;;;;27.67;10.77;;;;;;;5.57;100.00;103475.63;5076962;28;20505;-49
2022/01/22 09:54:53;;;;;;;27.38;11.40;;;;;;;5.58;100.00;103477.31;5077437;28;20290;-47
2022/01/22 09:57:20;;;;;;;35.53;11.10;;;;;;;5.59;100.00;103471.09;5076261;28;20089;-43
2022/01/22 09:59:45;;;;;;;35.75;11.82;;;;;;;5.60;100.00;103481.66;5078263;28;20388;-44
2022/01/22 10:02:19;;;;;;;34.55;11.52;;;;;;;5.61;100.00;103475.41;5077634;28;20039;-47
2022/01/22 10:04:48;;;;;;;28.45;12.60;;;;;;;5.64;100.00;103479.72;5078144;28;20068;-45
2022/01/22 10:07:21;;;;;;;27.42;11.55;;;;;;;5.65;100.00;103483.22;5079198;28;20020;-48
2022/01/22 10:10:02;;;;;;;28.65;11.82;;;;;;;5.67;100.00;103476.06;5078448;28;20466;-48
2022/01/22 10:12:29;;;;;;;27.33;10.93;;;;;;;5.68;100.00;103477.81;5077399;28;20028;-44
2022/01/22 10:15:18;;;;;;;28.10;10.50;;;;;;;5.69;100.00;103479.53;5077899;28;20669;-44
2022/01/22 10:17:55;;;;;;;29.27;10.45;;;;;;;5.69;100.00;103484.84;5059453;28;20052;-43
2022/01/22 10:20:20;;;;;;;29.30;13.95;;;;;;;5.67;100.00;103482.25;5075315;28;20451;-45
2022/01/22 10:22:46;;;;;;;40.80;16.50;;;;;;;5.67;100.00;103491.97;5078590;28;20043;-45
2022/01/22 10:25:31;;;;;;;40.53;17.27;;;;;;;5.60;100.00;103492.25;5078192;28;20350;-43
2022/01/22 10:28:00;;;;;;;47.35;18.75;;;;;;;5.54;100.00;103484.53;5075675;28;20691;-43
2022/01/22 10:30:40;;;;;;;39.08;19.00;;;;;;;5.53;100.00;103485.47;5077303;28;20492;-45
2022/01/22 10:33:27;;;;;;;42.27;18.80;;;;;;;5.51;100.00;103478.50;5078628;28;20152;-44
2022/01/22 10:35:53;;;;;;;37.22;16.85;;;;;;;5.54;100.00;103475.72;5079349;28;20553;-47
2022/01/22 10:38:21;;;;;;;46.00;17.80;;;;;;;5.57;100.00;103484.41;5077804;28;20032;-47
2022/01/22 10:40:47;;;;;;;44.70;17.15;;;;;;;5.55;100.00;103480.09;5076903;28;20054;-42
2022/01/22 10:48:44;;;;;;;42.42;17.02;;;;;;;5.61;100.00;103490.44;5077747;28;20050;-44
2022/01/22 10:51:14;;;;;;;34.22;14.82;;;;;;;5.62;100.00;103494.84;5079009;28;20514;-43
2022/01/22 10:53:49;;;;;;;31.75;13.32;;;;;;;5.65;100.00;103499.13;5077118;28;20024;-47
2022/01/22 10:56:20;;;;;;;41.13;14.68;;;;;;;5.67;100.00;103495.50;5074979;28;20028;-44
2022/01/22 10:59:06;;;;;;;37.95;14.23;;;;;;;5.69;100.00;103488.34;5075284;28;20017;-46
2022/01/22 11:01:55;;;;;;;32.85;15.48;;;;;;;5.71;100.00;103498.91;5077219;28;20096;-45
2022/01/22 11:04:26;;;;;;;48.45;17.08;;;;;;;5.70;100.00;103491.84;5076268;28;20012;-44
2022/01/22 11:07:00;;;;;;;35.80;15.80;;;;;;;5.72;100.00;103487.34;5079084;28;20059;-47
2022/01/22 11:09:29;;;;;;;40.80;16.55;;;;;;;5.72;100.00;103492.66;5073327;28;20051;-48
2022/01/22 11:11:55;;;;;;;39.70;16.98;;;;;;;5.73;100.00;103483.78;5076073;28;20659;-47
2022/01/22 11:14:20;;;;;;;43.42;18.02;;;;;;;5.72;100.00;103477.63;5055147;28;20028;-43
2022/01/22 11:16:48;;;;;;;51.17;18.75;;;;;;;5.74;100.00;103477.56;5075503;28;20395;-48
2022/01/22 11:19:16;;;;;;;40.20;17.42;;;;;;;5.71;100.00;103473.22;5075067;28;20476;-46
2022/01/22 11:21:46;;;;;;;43.00;18.38;;;;;;;5.72;100.00;103469.66;5075890;28;20023;-44
2022/01/22 11:24:13;;;;;;;38.83;18.23;;;;;;;5.71;100.00;103477.69;5076475;28;20039;-47
2022/01/22 11:26:39;;;;;;;36.95;18.33;;;;;;;5.72;100.00;103468.78;5075084;28;20020;-46
2022/01/22 11:29:06;;;;;;;49.88;20.67;;;;;;;5.70;100.00;103468.00;5075228;28;20554;-45
2022/01/22 11:31:33;;;;;;;37.20;19.77;;;;;;;5.71;100.00;103475.03;5075604;28;20053;-44
2022/01/22 11:33:59;;;;;;;50.65;20.23;;;;;;;5.72;100.00;103474.97;5075843;28;20028;-44
2022/01/22 11:36:32;;;;;;;43.33;20.63;;;;;;;5.72;100.00;103468.78;5075349;28;20471;-45
2022/01/22 11:38:59;;;;;;;41.88;19.05;;;;;;;5.74;100.00;103470.47;5056735;28;20039;-46
2022/01/22 11:41:25;;;;;;;42.97;19.67;;;;;;;5.75;100.00;103473.97;5072564;28;20028;-47
2022/01/22 11:43:58;;;;;;;43.30;19.30;;;;;;;5.77;100.00;103472.09;5074174;28;20486;-44
2022/01/22 11:46:29;;;;;;;41.33;20.02;;;;;;;5.77;100.00;103478.28;5074441;28;20379;-44
2022/01/22 11:49:27;;;;;;;45.00;18.90;;;;;;;5.81;100.00;103476.38;5075894;28;20024;-45
2022/01/22 11:52:14;;;;;;;39.83;20.08;;;;;;;5.79;100.00;103484.38;5075510;28;20024;-45
2022/01/22 11:54:59;;;;;;;40.53;18.25;;;;;;;5.82;100.00;103477.22;5075121;28;20054;-46
2022/01/22 11:57:30;;;;;;;51.72;22.05;;;;;;;5.82;100.00;103475.41;5038978;28;20179;-46
2022/01/22 12:00:20;;;;;;;43.55;19.05;;;;;;;5.83;100.00;103478.97;5066805;28;20277;-45
2022/01/22 12:03:08;;;;;;;54.67;27.25;;;;;;;5.81;100.00;103478.16;5075626;28;20035;-48
2022/01/22 12:05:52;;;;;;;40.85;19.75;;;;;;;5.78;100.00;103471.19;5075350;28;20028;-44
2022/01/22 12:08:18;;;;;;;50.47;20.25;;;;;;;5.75;100.00;103472.19;5068277;28;20100;-47
2022/01/22 12:14:26;;;;;;;51.40;20.92;;;;;;;5.77;100.00;103464.16;5069238;28;20344;-48
2022/01/22 12:19:48;;;;;;;53.05;21.77;;;;;;;5.71;100.00;103459.13;4988073;22;21375;-47
2022/01/22 12:22:50;;;;;;;50.83;24.98;;;;;;;5.71;100.00;103462.63;5098715;28;20039;-43
2022/01/22 12:25:15;;;;;;;45.60;21.85;;;;;;;5.70;100.00;103462.69;5082562;28;20165;-51
2022/01/22 12:27:51;;;;;;;56.13;23.47;;;;;;;5.67;100.00;103463.69;5086826;28;20374;-49
2022/01/22 12:30:32;;;;;;;51.55;23.88;;;;;;;5.67;100.00;103473.41;5061283;28;20270;-44
2022/01/22 12:32:59;;;;;;;45.42;22.27;;;;;;;5.66;100.00;103469.06;5079404;28;20024;-45
2022/01/22 12:35:45;;;;;;;48.70;24.17;;;;;;;5.65;100.00;103472.63;5077178;28;20020;-45
2022/01/22 12:38:17;;;;;;;56.33;25.38;;;;;;;5.64;100.00;103466.47;5079144;28;20039;-47
2022/01/22 12:40:43;;;;;;;52.58;23.15;;;;;;;5.67;100.00;103470.78;5083465;28;20084;-48
2022/01/22 12:43:13;;;;;;;58.90;25.13;;;;;;;5.70;100.00;103460.03;5083969;28;20039;-46
2022/01/22 12:45:41;;;;;;;48.92;24.85;;;;;;;5.67;100.00;103458.41;5082635;28;20028;-45
2022/01/22 12:48:07;;;;;;;50.92;24.85;;;;;;;5.69;100.00;103468.94;5081810;28;20451;-46
2022/01/22 12:50:35;;;;;;;53.30;26.98;;;;;;;5.69;100.00;103469.78;5083517;28;20092;-45
2022/01/22 12:53:09;;;;;;;61.17;25.75;;;;;;;5.70;100.00;103471.53;5065011;28;20034;-46